sensor_id;sensor_type;location;lat;lon;timestamp;P1;durP1;ratioP1;P2;durP2;ratioP2
71042;SDS011;58696;52.134;5.500;2022-07-12T00:00:45;4.63;;;1.20;;
71042;SDS011;58696;52.134;5.500;2022-07-12T00:03:12;1.40;;;1.17;;
71042;SDS011;58696;52.134;5.500;2022-07-12T00:05:39;1.50;;;1.23;;
71042;SDS011;58696;52.134;5.500;2022-07-12T00:08:06;2.50;;;2.20;;
71042;SDS011;58696;52.134;5.500;2022-07-12T00:10:37;3.97;;;2.50;;
71042;SDS011;58696;52.134;5.500;2022-07-12T00:13:04;4.80;;;2.67;;
71042;SDS011;58696;52.134;5.500;2022-07-12T00:15:31;5.47;;;2.53;;
71042;SDS011;58696;52.134;5.500;2022-07-12T00:18:01;4.07;;;2.55;;
71042;SDS011;58696;52.134;5.500;2022-07-12T00:20:28;2.97;;;1.90;;
71042;SDS011;58696;52.134;5.500;2022-07-12T00:22:55;3.65;;;2.58;;
71042;SDS011;58696;52.134;5.500;2022-07-12T00:25:24;4.07;;;3.53;;
71042;SDS011;58696;52.134;5.500;2022-07-12T00:30:19;5.03;;;4.20;;
71042;SDS011;58696;52.134;5.500;2022-07-12T00:32:45;7.70;;;4.25;;
71042;SDS011;58696;52.134;5.500;2022-07-12T00:35:14;5.47;;;3.75;;
71042;SDS011;58696;52.134;5.500;2022-07-12T00:37:41;4.53;;;3.00;;
71042;SDS011;58696;52.134;5.500;2022-07-12T00:40:09;5.35;;;3.50;;
71042;SDS011;58696;52.134;5.500;2022-07-12T00:42:38;3.17;;;2.88;;
71042;SDS011;58696;52.134;5.500;2022-07-12T00:45:06;6.80;;;3.75;;
71042;SDS011;58696;52.134;5.500;2022-07-12T00:47:37;3.17;;;2.80;;
71042;SDS011;58696;52.134;5.500;2022-07-12T00:50:07;5.05;;;3.25;;
71042;SDS011;58696;52.134;5.500;2022-07-12T00:52:35;5.82;;;3.03;;
71042;SDS011;58696;52.134;5.500;2022-07-12T00:55:04;11.07;;;2.67;;
71042;SDS011;58696;52.134;5.500;2022-07-12T00:57:34;7.00;;;2.22;;
71042;SDS011;58696;52.134;5.500;2022-07-12T01:00:03;2.00;;;1.90;;
71042;SDS011;58696;52.134;5.500;2022-07-12T01:02:34;2.80;;;2.22;;
71042;SDS011;58696;52.134;5.500;2022-07-12T01:05:03;5.85;;;2.20;;
71042;SDS011;58696;52.134;5.500;2022-07-12T01:07:32;2.97;;;2.10;;
71042;SDS011;58696;52.134;5.500;2022-07-12T01:10:01;2.22;;;2.03;;
71042;SDS011;58696;52.134;5.500;2022-07-12T01:12:33;1.92;;;1.70;;
71042;SDS011;58696;52.134;5.500;2022-07-12T01:15:00;2.15;;;1.92;;
71042;SDS011;58696;52.134;5.500;2022-07-12T01:19:55;4.93;;;1.83;;
71042;SDS011;58696;52.134;5.500;2022-07-12T01:22:29;4.97;;;2.35;;
71042;SDS011;58696;52.134;5.500;2022-07-12T01:25:02;2.72;;;2.20;;
71042;SDS011;58696;52.134;5.500;2022-07-12T01:27:31;2.80;;;2.10;;
71042;SDS011;58696;52.134;5.500;2022-07-12T01:30:08;2.20;;;2.00;;
71042;SDS011;58696;52.134;5.500;2022-07-12T01:32:35;2.33;;;1.63;;
71042;SDS011;58696;52.134;5.500;2022-07-12T01:35:05;1.90;;;1.30;;
71042;SDS011;58696;52.134;5.500;2022-07-12T01:37:34;2.05;;;1.30;;
71042;SDS011;58696;52.134;5.500;2022-07-12T01:40:03;8.32;;;1.58;;
71042;SDS011;58696;52.134;5.500;2022-07-12T01:42:31;1.23;;;1.20;;
71042;SDS011;58696;52.134;5.500;2022-07-12T01:44:58;3.47;;;1.23;;
71042;SDS011;58696;52.134;5.500;2022-07-12T01:47:30;2.13;;;1.45;;
71042;SDS011;58696;52.134;5.500;2022-07-12T01:49:58;1.50;;;1.40;;
71042;SDS011;58696;52.134;5.500;2022-07-12T01:52:27;3.33;;;1.60;;
71042;SDS011;58696;52.134;5.500;2022-07-12T01:54:55;1.88;;;1.70;;
71042;SDS011;58696;52.134;5.500;2022-07-12T01:57:24;1.98;;;1.60;;
71042;SDS011;58696;52.134;5.500;2022-07-12T01:59:52;2.15;;;1.75;;
71042;SDS011;58696;52.134;5.500;2022-07-12T02:04:47;1.30;;;1.20;;
71042;SDS011;58696;52.134;5.500;2022-07-12T02:07:14;2.90;;;1.37;;
71042;SDS011;58696;52.134;5.500;2022-07-12T02:09:41;1.25;;;1.15;;
71042;SDS011;58696;52.134;5.500;2022-07-12T02:12:09;2.35;;;1.50;;
71042;SDS011;58696;52.134;5.500;2022-07-12T02:14:36;2.97;;;1.33;;
71042;SDS011;58696;52.134;5.500;2022-07-12T02:17:05;2.72;;;1.80;;
71042;SDS011;58696;52.134;5.500;2022-07-12T02:19:32;3.15;;;1.70;;
71042;SDS011;58696;52.134;5.500;2022-07-12T02:21:59;1.40;;;1.23;;
71042;SDS011;58696;52.134;5.500;2022-07-12T02:24:25;2.83;;;1.13;;
71042;SDS011;58696;52.134;5.500;2022-07-12T02:26:52;1.50;;;1.33;;
71042;SDS011;58696;52.134;5.500;2022-07-12T02:29:19;1.70;;;1.40;;
71042;SDS011;58696;52.134;5.500;2022-07-12T02:31:46;1.10;;;1.10;;
71042;SDS011;58696;52.134;5.500;2022-07-12T02:34:13;1.05;;;1.05;;
71042;SDS011;58696;52.134;5.500;2022-07-12T02:36:40;0.93;;;0.93;;
71042;SDS011;58696;52.134;5.500;2022-07-12T02:39:07;1.30;;;1.20;;
71042;SDS011;58696;52.134;5.500;2022-07-12T02:41:34;1.48;;;1.35;;
71042;SDS011;58696;52.134;5.500;2022-07-12T02:44:00;1.23;;;1.13;;
71042;SDS011;58696;52.134;5.500;2022-07-12T02:46:28;1.23;;;1.13;;
71042;SDS011;58696;52.134;5.500;2022-07-12T02:48:55;1.20;;;1.10;;
71042;SDS011;58696;52.134;5.500;2022-07-12T02:51:22;1.33;;;1.23;;
71042;SDS011;58696;52.134;5.500;2022-07-12T02:53:48;5.43;;;1.10;;
71042;SDS011;58696;52.134;5.500;2022-07-12T02:56:15;0.90;;;0.90;;
71042;SDS011;58696;52.134;5.500;2022-07-12T02:58:42;3.75;;;1.08;;
71042;SDS011;58696;52.134;5.500;2022-07-12T03:01:09;0.90;;;0.90;;
71042;SDS011;58696;52.134;5.500;2022-07-12T03:06:04;0.90;;;0.90;;
71042;SDS011;58696;52.134;5.500;2022-07-12T03:08:31;1.23;;;0.90;;
71042;SDS011;58696;52.134;5.500;2022-07-12T03:10:57;1.67;;;1.23;;
71042;SDS011;58696;52.134;5.500;2022-07-12T03:13:24;1.70;;;1.20;;
71042;SDS011;58696;52.134;5.500;2022-07-12T03:15:51;1.15;;;1.10;;
71042;SDS011;58696;52.134;5.500;2022-07-12T03:18:18;1.88;;;1.58;;
71042;SDS011;58696;52.134;5.500;2022-07-12T03:20:45;2.03;;;1.35;;
71042;SDS011;58696;52.134;5.500;2022-07-12T03:23:12;4.13;;;1.60;;
71042;SDS011;58696;52.134;5.500;2022-07-12T03:25:39;2.38;;;1.80;;
71042;SDS011;58696;52.134;5.500;2022-07-12T03:28:06;2.42;;;1.90;;
71042;SDS011;58696;52.134;5.500;2022-07-12T03:30:33;3.40;;;1.95;;
71042;SDS011;58696;52.134;5.500;2022-07-12T03:33:02;2.03;;;1.52;;
71042;SDS011;58696;52.134;5.500;2022-07-12T03:35:29;2.83;;;1.45;;
71042;SDS011;58696;52.134;5.500;2022-07-12T03:37:56;1.58;;;1.48;;
71042;SDS011;58696;52.134;5.500;2022-07-12T03:40:23;4.25;;;1.70;;
71042;SDS011;58696;52.134;5.500;2022-07-12T03:42:51;4.50;;;1.80;;
71042;SDS011;58696;52.134;5.500;2022-07-12T03:45:19;2.30;;;2.10;;
71042;SDS011;58696;52.134;5.500;2022-07-12T03:47:47;1.90;;;1.63;;
71042;SDS011;58696;52.134;5.500;2022-07-12T03:50:14;1.67;;;1.50;;
71042;SDS011;58696;52.134;5.500;2022-07-12T03:52:41;1.80;;;1.70;;
71042;SDS011;58696;52.134;5.500;2022-07-12T03:55:10;2.22;;;1.63;;
71042;SDS011;58696;52.134;5.500;2022-07-12T03:57:38;1.90;;;1.80;;
71042;SDS011;58696;52.134;5.500;2022-07-12T04:00:06;2.75;;;1.35;;
71042;SDS011;58696;52.134;5.500;2022-07-12T04:02:57;2.47;;;1.77;;
71042;SDS011;58696;52.134;5.500;2022-07-12T04:05:26;1.40;;;1.30;;
71042;SDS011;58696;52.134;5.500;2022-07-12T04:07:55;5.57;;;1.50;;
71042;SDS011;58696;52.134;5.500;2022-07-12T04:10:22;1.77;;;1.67;;
71042;SDS011;58696;52.134;5.500;2022-07-12T04:12:48;1.85;;;1.60;;
71042;SDS011;58696;52.134;5.500;2022-07-12T04:15:17;2.15;;;1.88;;
71042;SDS011;58696;52.134;5.500;2022-07-12T04:17:46;1.92;;;1.83;;
71042;SDS011;58696;52.134;5.500;2022-07-12T04:20:12;4.60;;;1.85;;
71042;SDS011;58696;52.134;5.500;2022-07-12T04:22:39;3.03;;;1.55;;
71042;SDS011;58696;52.134;5.500;2022-07-12T04:25:07;5.37;;;1.50;;
71042;SDS011;58696;52.134;5.500;2022-07-12T04:27:34;2.17;;;1.65;;
71042;SDS011;58696;52.134;5.500;2022-07-12T04:30:02;1.50;;;1.38;;
71042;SDS011;58696;52.134;5.500;2022-07-12T04:32:29;1.73;;;1.63;;
71042;SDS011;58696;52.134;5.500;2022-07-12T04:34:59;2.55;;;1.67;;
71042;SDS011;58696;52.134;5.500;2022-07-12T04:37:25;2.25;;;1.60;;
71042;SDS011;58696;52.134;5.500;2022-07-12T04:39:52;3.55;;;1.73;;
71042;SDS011;58696;52.134;5.500;2022-07-12T04:42:19;3.00;;;1.95;;
71042;SDS011;58696;52.134;5.500;2022-07-12T04:44:46;2.38;;;2.00;;
71042;SDS011;58696;52.134;5.500;2022-07-12T04:47:13;4.72;;;2.75;;
71042;SDS011;58696;52.134;5.500;2022-07-12T04:49:40;2.28;;;2.15;;
71042;SDS011;58696;52.134;5.500;2022-07-12T04:52:07;2.50;;;2.30;;
71042;SDS011;58696;52.134;5.500;2022-07-12T04:54:33;2.53;;;2.33;;
71042;SDS011;58696;52.134;5.500;2022-07-12T04:57:00;2.55;;;2.20;;
71042;SDS011;58696;52.134;5.500;2022-07-12T04:59:29;3.13;;;2.50;;
71042;SDS011;58696;52.134;5.500;2022-07-12T05:01:57;2.10;;;1.98;;
71042;SDS011;58696;52.134;5.500;2022-07-12T05:04:24;2.45;;;2.20;;
71042;SDS011;58696;52.134;5.500;2022-07-12T05:06:51;2.37;;;1.90;;
71042;SDS011;58696;52.134;5.500;2022-07-12T05:09:19;2.30;;;2.05;;
71042;SDS011;58696;52.134;5.500;2022-07-12T05:11:45;2.83;;;2.50;;
71042;SDS011;58696;52.134;5.500;2022-07-12T05:14:13;3.90;;;3.10;;
71042;SDS011;58696;52.134;5.500;2022-07-12T05:16:40;3.80;;;3.30;;
71042;SDS011;58696;52.134;5.500;2022-07-12T05:19:07;5.32;;;3.28;;
71042;SDS011;58696;52.134;5.500;2022-07-12T05:21:34;3.88;;;3.58;;
71042;SDS011;58696;52.134;5.500;2022-07-12T05:24:02;5.17;;;3.30;;
71042;SDS011;58696;52.134;5.500;2022-07-12T05:26:30;6.25;;;3.60;;
71042;SDS011;58696;52.134;5.500;2022-07-12T05:28:56;9.18;;;4.15;;
71042;SDS011;58696;52.134;5.500;2022-07-12T05:31:23;4.00;;;3.60;;
71042;SDS011;58696;52.134;5.500;2022-07-12T05:33:51;5.00;;;4.28;;
71042;SDS011;58696;52.134;5.500;2022-07-12T05:36:17;6.60;;;4.30;;
71042;SDS011;58696;52.134;5.500;2022-07-12T05:38:47;7.47;;;3.80;;
71042;SDS011;58696;52.134;5.500;2022-07-12T05:41:13;4.40;;;4.00;;
71042;SDS011;58696;52.134;5.500;2022-07-12T05:43:42;3.92;;;3.58;;
71042;SDS011;58696;52.134;5.500;2022-07-12T05:46:10;5.15;;;4.00;;
71042;SDS011;58696;52.134;5.500;2022-07-12T05:48:37;5.20;;;4.13;;
71042;SDS011;58696;52.134;5.500;2022-07-12T05:51:04;9.20;;;4.03;;
71042;SDS011;58696;52.134;5.500;2022-07-12T05:53:50;4.85;;;4.30;;
71042;SDS011;58696;52.134;5.500;2022-07-12T05:56:18;7.15;;;4.30;;
71042;SDS011;58696;52.134;5.500;2022-07-12T05:58:44;5.13;;;4.50;;
71042;SDS011;58696;52.134;5.500;2022-07-12T06:01:12;7.13;;;4.95;;
71042;SDS011;58696;52.134;5.500;2022-07-12T06:03:38;7.97;;;5.40;;
71042;SDS011;58696;52.134;5.500;2022-07-12T06:06:05;5.55;;;4.88;;
71042;SDS011;58696;52.134;5.500;2022-07-12T06:08:32;6.37;;;5.53;;
71042;SDS011;58696;52.134;5.500;2022-07-12T06:11:01;5.40;;;4.90;;
71042;SDS011;58696;52.134;5.500;2022-07-12T06:13:27;8.10;;;5.82;;
71042;SDS011;58696;52.134;5.500;2022-07-12T06:15:55;6.13;;;5.53;;
71042;SDS011;58696;52.134;5.500;2022-07-12T06:18:25;5.70;;;5.18;;
71042;SDS011;58696;52.134;5.500;2022-07-12T06:20:52;8.70;;;5.25;;
71042;SDS011;58696;52.134;5.500;2022-07-12T06:23:19;11.68;;;5.30;;
71042;SDS011;58696;52.134;5.500;2022-07-12T06:25:46;8.55;;;5.50;;
71042;SDS011;58696;52.134;5.500;2022-07-12T06:28:20;5.78;;;5.32;;
71042;SDS011;58696;52.134;5.500;2022-07-12T06:30:47;7.30;;;5.63;;
71042;SDS011;58696;52.134;5.500;2022-07-12T06:33:14;6.40;;;5.80;;
71042;SDS011;58696;52.134;5.500;2022-07-12T06:35:41;6.35;;;5.32;;
71042;SDS011;58696;52.134;5.500;2022-07-12T06:38:10;7.70;;;5.55;;
71042;SDS011;58696;52.134;5.500;2022-07-12T06:40:37;11.02;;;5.25;;
71042;SDS011;58696;52.134;5.500;2022-07-12T06:43:08;6.88;;;5.05;;
71042;SDS011;58696;52.134;5.500;2022-07-12T06:45:36;10.07;;;5.53;;
71042;SDS011;58696;52.134;5.500;2022-07-12T06:48:03;6.33;;;5.17;;
71042;SDS011;58696;52.134;5.500;2022-07-12T06:50:33;5.20;;;4.70;;
71042;SDS011;58696;52.134;5.500;2022-07-12T06:53:00;9.03;;;5.10;;
71042;SDS011;58696;52.134;5.500;2022-07-12T06:55:27;6.50;;;5.13;;
71042;SDS011;58696;52.134;5.500;2022-07-12T06:57:54;7.82;;;4.55;;
71042;SDS011;58696;52.134;5.500;2022-07-12T07:00:20;8.38;;;5.20;;
71042;SDS011;58696;52.134;5.500;2022-07-12T07:02:47;8.43;;;4.72;;
71042;SDS011;58696;52.134;5.500;2022-07-12T07:07:44;7.72;;;4.55;;
71042;SDS011;58696;52.134;5.500;2022-07-12T07:10:10;6.35;;;4.85;;
71042;SDS011;58696;52.134;5.500;2022-07-12T07:12:37;6.90;;;5.13;;
71042;SDS011;58696;52.134;5.500;2022-07-12T07:15:07;6.20;;;5.13;;
71042;SDS011;58696;52.134;5.500;2022-07-12T07:20:04;5.32;;;4.82;;
71042;SDS011;58696;52.134;5.500;2022-07-12T07:25:01;5.15;;;4.53;;
71042;SDS011;58696;52.134;5.500;2022-07-12T07:27:28;6.78;;;5.60;;
71042;SDS011;58696;52.134;5.500;2022-07-12T07:29:55;5.27;;;4.77;;
71042;SDS011;58696;52.134;5.500;2022-07-12T07:32:41;5.60;;;5.10;;
71042;SDS011;58696;52.134;5.500;2022-07-12T07:35:08;9.57;;;5.28;;
71042;SDS011;58696;52.134;5.500;2022-07-12T07:40:02;4.60;;;4.20;;
71042;SDS011;58696;52.134;5.500;2022-07-12T07:42:29;6.82;;;4.28;;
71042;SDS011;58696;52.134;5.500;2022-07-12T07:44:58;10.52;;;4.68;;
71042;SDS011;58696;52.134;5.500;2022-07-12T07:47:47;6.20;;;4.05;;
71042;SDS011;58696;52.134;5.500;2022-07-12T07:50:35;4.50;;;4.10;;
71042;SDS011;58696;52.134;5.500;2022-07-12T07:53:02;9.15;;;4.55;;
71042;SDS011;58696;52.134;5.500;2022-07-12T07:55:31;4.68;;;4.20;;
71042;SDS011;58696;52.134;5.500;2022-07-12T07:58:00;6.15;;;4.75;;
71042;SDS011;58696;52.134;5.500;2022-07-12T08:00:29;5.22;;;3.95;;
71042;SDS011;58696;52.134;5.500;2022-07-12T08:02:57;4.25;;;3.90;;
71042;SDS011;58696;52.134;5.500;2022-07-12T08:05:25;4.90;;;4.07;;
71042;SDS011;58696;52.134;5.500;2022-07-12T08:07:57;5.25;;;3.50;;
71042;SDS011;58696;52.134;5.500;2022-07-12T08:10:24;5.10;;;4.07;;
71042;SDS011;58696;52.134;5.500;2022-07-12T08:12:51;8.98;;;3.20;;
71042;SDS011;58696;52.134;5.500;2022-07-12T08:15:18;5.55;;;4.13;;
71042;SDS011;58696;52.134;5.500;2022-07-12T08:17:45;3.88;;;3.58;;
71042;SDS011;58696;52.134;5.500;2022-07-12T08:20:22;5.65;;;3.33;;
71042;SDS011;58696;52.134;5.500;2022-07-12T08:23:10;4.25;;;3.85;;
71042;SDS011;58696;52.134;5.500;2022-07-12T08:30:32;7.70;;;3.33;;
71042;SDS011;58696;52.134;5.500;2022-07-12T08:32:58;4.40;;;3.55;;
71042;SDS011;58696;52.134;5.500;2022-07-12T08:35:26;5.75;;;3.80;;
71042;SDS011;58696;52.134;5.500;2022-07-12T08:37:56;4.85;;;3.50;;
71042;SDS011;58696;52.134;5.500;2022-07-12T08:42:49;3.67;;;3.38;;
71042;SDS011;58696;52.134;5.500;2022-07-12T08:45:16;4.22;;;3.83;;
71042;SDS011;58696;52.134;5.500;2022-07-12T08:47:43;8.15;;;3.60;;
71042;SDS011;58696;52.134;5.500;2022-07-12T08:50:14;4.93;;;3.80;;
71042;SDS011;58696;52.134;5.500;2022-07-12T08:52:50;3.45;;;2.97;;
71042;SDS011;58696;52.134;5.500;2022-07-12T08:55:31;6.60;;;3.53;;
71042;SDS011;58696;52.134;5.500;2022-07-12T08:58:02;4.55;;;3.65;;
71042;SDS011;58696;52.134;5.500;2022-07-12T09:00:34;3.60;;;3.30;;
71042;SDS011;58696;52.134;5.500;2022-07-12T09:03:02;3.15;;;2.92;;
71042;SDS011;58696;52.134;5.500;2022-07-12T09:05:31;3.95;;;3.10;;
71042;SDS011;58696;52.134;5.500;2022-07-12T09:08:08;3.53;;;2.95;;
71042;SDS011;58696;52.134;5.500;2022-07-12T09:10:57;6.10;;;3.08;;
71042;SDS011;58696;52.134;5.500;2022-07-12T09:16:15;6.65;;;3.72;;
71042;SDS011;58696;52.134;5.500;2022-07-12T09:18:46;3.22;;;2.67;;
71042;SDS011;58696;52.134;5.500;2022-07-12T09:21:23;4.85;;;2.65;;
71042;SDS011;58696;52.134;5.500;2022-07-12T09:23:56;4.10;;;2.75;;
71042;SDS011;58696;52.134;5.500;2022-07-12T09:26:24;3.05;;;2.72;;
71042;SDS011;58696;52.134;5.500;2022-07-12T09:29:08;2.85;;;2.47;;
71042;SDS011;58696;52.134;5.500;2022-07-12T09:31:38;2.42;;;2.33;;
71042;SDS011;58696;52.134;5.500;2022-07-12T09:34:33;1.47;;;1.40;;
71042;SDS011;58696;52.134;5.500;2022-07-12T09:37:19;2.93;;;2.63;;
71042;SDS011;58696;52.134;5.500;2022-07-12T09:39:51;4.88;;;2.42;;
71042;SDS011;58696;52.134;5.500;2022-07-12T09:42:18;3.00;;;2.70;;
71042;SDS011;58696;52.134;5.500;2022-07-12T09:44:53;3.05;;;2.60;;
71042;SDS011;58696;52.134;5.500;2022-07-12T09:47:24;2.58;;;2.38;;
71042;SDS011;58696;52.134;5.500;2022-07-12T09:49:51;5.53;;;2.90;;
71042;SDS011;58696;52.134;5.500;2022-07-12T09:52:19;2.65;;;2.45;;
71042;SDS011;58696;52.134;5.500;2022-07-12T09:54:52;2.70;;;2.50;;
71042;SDS011;58696;52.134;5.500;2022-07-12T09:57:26;4.80;;;2.50;;
71042;SDS011;58696;52.134;5.500;2022-07-12T09:59:57;3.47;;;2.75;;
71042;SDS011;58696;52.134;5.500;2022-07-12T10:02:25;4.43;;;2.38;;
71042;SDS011;58696;52.134;5.500;2022-07-12T10:04:52;8.43;;;1.98;;
71042;SDS011;58696;52.134;5.500;2022-07-12T10:07:23;4.32;;;1.75;;
71042;SDS011;58696;52.134;5.500;2022-07-12T10:09:51;2.38;;;1.98;;
71042;SDS011;58696;52.134;5.500;2022-07-12T10:12:21;1.73;;;1.63;;
71042;SDS011;58696;52.134;5.500;2022-07-12T10:14:53;2.72;;;2.03;;
71042;SDS011;58696;52.134;5.500;2022-07-12T10:17:25;3.40;;;2.30;;
71042;SDS011;58696;52.134;5.500;2022-07-12T10:20:14;4.03;;;2.40;;
71042;SDS011;58696;52.134;5.500;2022-07-12T10:22:54;2.90;;;2.00;;
71042;SDS011;58696;52.134;5.500;2022-07-12T10:25:31;3.25;;;2.08;;
71042;SDS011;58696;52.134;5.500;2022-07-12T10:28:02;2.88;;;2.67;;
71042;SDS011;58696;52.134;5.500;2022-07-12T10:30:30;5.50;;;2.80;;
71042;SDS011;58696;52.134;5.500;2022-07-12T10:32:58;2.75;;;2.50;;
71042;SDS011;58696;52.134;5.500;2022-07-12T10:35:28;3.53;;;2.60;;
71042;SDS011;58696;52.134;5.500;2022-07-12T10:40:40;2.80;;;2.60;;
71042;SDS011;58696;52.134;5.500;2022-07-12T10:45:40;3.88;;;2.83;;
71042;SDS011;58696;52.134;5.500;2022-07-12T10:58:31;3.53;;;3.22;;
71042;SDS011;58696;52.134;5.500;2022-07-12T11:01:03;3.70;;;3.40;;
71042;SDS011;58696;52.134;5.500;2022-07-12T11:03:49;2.88;;;2.67;;
71042;SDS011;58696;52.134;5.500;2022-07-12T11:06:21;2.60;;;2.40;;
71042;SDS011;58696;52.134;5.500;2022-07-12T11:09:02;2.65;;;2.30;;
71042;SDS011;58696;52.134;5.500;2022-07-12T11:11:35;4.15;;;2.45;;
71042;SDS011;58696;52.134;5.500;2022-07-12T11:14:08;2.75;;;2.55;;
71042;SDS011;58696;52.134;5.500;2022-07-12T11:16:42;6.97;;;2.35;;
71042;SDS011;58696;52.134;5.500;2022-07-12T11:19:12;4.38;;;2.40;;
71042;SDS011;58696;52.134;5.500;2022-07-12T11:21:42;3.20;;;1.65;;
71042;SDS011;58696;52.134;5.500;2022-07-12T11:24:16;4.63;;;2.55;;
71042;SDS011;58696;52.134;5.500;2022-07-12T11:26:46;3.25;;;2.90;;
71042;SDS011;58696;52.134;5.500;2022-07-12T11:29:14;3.00;;;2.53;;
71042;SDS011;58696;52.134;5.500;2022-07-12T11:31:45;2.60;;;2.40;;
71042;SDS011;58696;52.134;5.500;2022-07-12T11:34:18;5.45;;;2.58;;
71042;SDS011;58696;52.134;5.500;2022-07-12T11:36:56;3.80;;;2.60;;
71042;SDS011;58696;52.134;5.500;2022-07-12T11:39:38;5.45;;;2.67;;
71042;SDS011;58696;52.134;5.500;2022-07-12T11:42:06;2.50;;;2.30;;
71042;SDS011;58696;52.134;5.500;2022-07-12T11:44:41;2.67;;;2.20;;
71042;SDS011;58696;52.134;5.500;2022-07-12T11:47:08;2.88;;;2.58;;
71042;SDS011;58696;52.134;5.500;2022-07-12T11:49:36;2.63;;;2.40;;
71042;SDS011;58696;52.134;5.500;2022-07-12T11:52:06;3.10;;;2.80;;
71042;SDS011;58696;52.134;5.500;2022-07-12T11:54:36;3.10;;;2.80;;
71042;SDS011;58696;52.134;5.500;2022-07-12T11:57:09;3.38;;;2.15;;
71042;SDS011;58696;52.134;5.500;2022-07-12T11:59:37;9.95;;;2.10;;
71042;SDS011;58696;52.134;5.500;2022-07-12T12:04:44;2.17;;;2.00;;
71042;SDS011;58696;52.134;5.500;2022-07-12T12:07:13;2.22;;;2.03;;
71042;SDS011;58696;52.134;5.500;2022-07-12T12:12:38;4.32;;;2.10;;
71042;SDS011;58696;52.134;5.500;2022-07-12T12:15:06;9.50;;;2.67;;
71042;SDS011;58696;52.134;5.500;2022-07-12T12:17:34;3.45;;;3.15;;
71042;SDS011;58696;52.134;5.500;2022-07-12T12:20:08;6.93;;;2.63;;
71042;SDS011;58696;52.134;5.500;2022-07-12T12:22:39;4.68;;;2.03;;
71042;SDS011;58696;52.134;5.500;2022-07-12T12:25:06;2.20;;;1.70;;
71042;SDS011;58696;52.134;5.500;2022-07-12T12:27:42;2.15;;;2.05;;
71042;SDS011;58696;52.134;5.500;2022-07-12T12:30:34;4.00;;;2.42;;
71042;SDS011;58696;52.134;5.500;2022-07-12T12:33:32;3.30;;;1.90;;
71042;SDS011;58696;52.134;5.500;2022-07-12T12:36:25;5.95;;;2.30;;
71042;SDS011;58696;52.134;5.500;2022-07-12T12:39:02;6.82;;;2.20;;
71042;SDS011;58696;52.134;5.500;2022-07-12T12:41:34;2.05;;;1.80;;
71042;SDS011;58696;52.134;5.500;2022-07-12T12:44:12;2.10;;;1.92;;
71042;SDS011;58696;52.134;5.500;2022-07-12T12:52:24;1.65;;;1.38;;
71042;SDS011;58696;52.134;5.500;2022-07-12T12:54:54;1.55;;;1.45;;
71042;SDS011;58696;52.134;5.500;2022-07-12T12:57:22;2.22;;;1.60;;
71042;SDS011;58696;52.134;5.500;2022-07-12T12:59:52;1.45;;;1.35;;
71042;SDS011;58696;52.134;5.500;2022-07-12T13:02:19;1.55;;;1.45;;
71042;SDS011;58696;52.134;5.500;2022-07-12T13:05:02;1.65;;;1.27;;
71042;SDS011;58696;52.134;5.500;2022-07-12T13:07:36;2.80;;;1.70;;
71042;SDS011;58696;52.134;5.500;2022-07-12T13:10:03;2.35;;;1.75;;
71042;SDS011;58696;52.134;5.500;2022-07-12T13:12:37;5.32;;;1.40;;
71042;SDS011;58696;52.134;5.500;2022-07-12T13:15:14;2.50;;;1.63;;
71042;SDS011;58696;52.134;5.500;2022-07-12T13:17:43;5.10;;;1.70;;
71042;SDS011;58696;52.134;5.500;2022-07-12T13:20:43;1.70;;;1.60;;
71042;SDS011;58696;52.134;5.500;2022-07-12T13:23:33;2.13;;;1.98;;
71042;SDS011;58696;52.134;5.500;2022-07-12T13:26:19;3.17;;;2.65;;
71042;SDS011;58696;52.134;5.500;2022-07-12T13:28:52;3.25;;;1.90;;
71042;SDS011;58696;52.134;5.500;2022-07-12T13:31:19;3.28;;;1.67;;
71042;SDS011;58696;52.134;5.500;2022-07-12T13:33:49;2.60;;;1.90;;
71042;SDS011;58696;52.134;5.500;2022-07-12T13:36:27;1.60;;;1.50;;
71042;SDS011;58696;52.134;5.500;2022-07-12T13:39:01;1.50;;;1.40;;
71042;SDS011;58696;52.134;5.500;2022-07-12T13:42:02;1.75;;;1.13;;
71042;SDS011;58696;52.134;5.500;2022-07-12T13:44:45;1.42;;;1.23;;
71042;SDS011;58696;52.134;5.500;2022-07-12T13:47:21;1.40;;;1.30;;
71042;SDS011;58696;52.134;5.500;2022-07-12T13:49:50;1.25;;;1.15;;
71042;SDS011;58696;52.134;5.500;2022-07-12T13:52:23;2.70;;;1.40;;
71042;SDS011;58696;52.134;5.500;2022-07-12T13:54:56;1.60;;;1.20;;
71042;SDS011;58696;52.134;5.500;2022-07-12T13:57:36;1.10;;;1.10;;
71042;SDS011;58696;52.134;5.500;2022-07-12T14:00:12;2.75;;;1.10;;
71042;SDS011;58696;52.134;5.500;2022-07-12T14:02:45;5.88;;;1.55;;
71042;SDS011;58696;52.134;5.500;2022-07-12T14:05:20;1.70;;;1.45;;
71042;SDS011;58696;52.134;5.500;2022-07-12T14:07:49;3.55;;;1.35;;
71042;SDS011;58696;52.134;5.500;2022-07-12T14:10:48;1.50;;;1.35;;
71042;SDS011;58696;52.134;5.500;2022-07-12T14:13:15;1.40;;;1.30;;
71042;SDS011;58696;52.134;5.500;2022-07-12T14:15:51;1.15;;;1.15;;
71042;SDS011;58696;52.134;5.500;2022-07-12T14:18:37;3.93;;;1.40;;
71042;SDS011;58696;52.134;5.500;2022-07-12T14:21:05;2.08;;;1.42;;
71042;SDS011;58696;52.134;5.500;2022-07-12T14:23:37;2.13;;;1.50;;
71042;SDS011;58696;52.134;5.500;2022-07-12T14:26:08;1.50;;;1.40;;
71042;SDS011;58696;52.134;5.500;2022-07-12T14:28:54;3.17;;;1.90;;
71042;SDS011;58696;52.134;5.500;2022-07-12T14:31:37;3.03;;;1.85;;
71042;SDS011;58696;52.134;5.500;2022-07-12T14:34:09;2.13;;;1.52;;
71042;SDS011;58696;52.134;5.500;2022-07-12T14:36:37;5.93;;;1.52;;
71042;SDS011;58696;52.134;5.500;2022-07-12T14:41:30;1.55;;;1.20;;
71042;SDS011;58696;52.134;5.500;2022-07-12T14:43:59;1.17;;;1.10;;
71042;SDS011;58696;52.134;5.500;2022-07-12T14:46:29;3.88;;;1.27;;
71042;SDS011;58696;52.134;5.500;2022-07-12T14:48:56;3.88;;;1.35;;
71042;SDS011;58696;52.134;5.500;2022-07-12T14:51:26;2.33;;;1.55;;
71042;SDS011;58696;52.134;5.500;2022-07-12T14:53:55;1.50;;;1.40;;
71042;SDS011;58696;52.134;5.500;2022-07-12T14:56:22;1.98;;;1.15;;
71042;SDS011;58696;52.134;5.500;2022-07-12T14:58:49;1.48;;;1.20;;
71042;SDS011;58696;52.134;5.500;2022-07-12T15:01:16;1.73;;;1.25;;
71042;SDS011;58696;52.134;5.500;2022-07-12T15:03:43;2.30;;;1.27;;
71042;SDS011;58696;52.134;5.500;2022-07-12T15:06:12;1.20;;;1.20;;
71042;SDS011;58696;52.134;5.500;2022-07-12T15:11:06;1.83;;;1.10;;
71042;SDS011;58696;52.134;5.500;2022-07-12T15:13:35;2.65;;;1.23;;
71042;SDS011;58696;52.134;5.500;2022-07-12T15:16:05;1.95;;;1.20;;
71042;SDS011;58696;52.134;5.500;2022-07-12T15:18:32;6.25;;;1.60;;
71042;SDS011;58696;52.134;5.500;2022-07-12T15:21:03;7.07;;;1.73;;
71042;SDS011;58696;52.134;5.500;2022-07-12T15:23:30;4.30;;;1.92;;
71042;SDS011;58696;52.134;5.500;2022-07-12T15:25:58;1.80;;;1.70;;
71042;SDS011;58696;52.134;5.500;2022-07-12T15:28:26;2.45;;;1.52;;
71042;SDS011;58696;52.134;5.500;2022-07-12T15:30:55;1.63;;;1.48;;
71042;SDS011;58696;52.134;5.500;2022-07-12T15:33:22;4.70;;;1.83;;
71042;SDS011;58696;52.134;5.500;2022-07-12T15:35:52;1.67;;;1.58;;
71042;SDS011;58696;52.134;5.500;2022-07-12T15:38:22;2.22;;;1.67;;
71042;SDS011;58696;52.134;5.500;2022-07-12T15:40:51;3.28;;;1.88;;
71042;SDS011;58696;52.134;5.500;2022-07-12T15:43:18;2.85;;;2.00;;
71042;SDS011;58696;52.134;5.500;2022-07-12T15:45:49;1.95;;;1.70;;
71042;SDS011;58696;52.134;5.500;2022-07-12T15:48:15;2.78;;;1.75;;
71042;SDS011;58696;52.134;5.500;2022-07-12T15:50:44;1.95;;;1.85;;
71042;SDS011;58696;52.134;5.500;2022-07-12T15:53:17;2.17;;;1.83;;
71042;SDS011;58696;52.134;5.500;2022-07-12T15:55:54;2.20;;;2.00;;
71042;SDS011;58696;52.134;5.500;2022-07-12T15:58:24;6.68;;;4.60;;
71042;SDS011;58696;52.134;5.500;2022-07-12T16:00:56;31.27;;;18.80;;
71042;SDS011;58696;52.134;5.500;2022-07-12T16:03:26;6.45;;;2.97;;
71042;SDS011;58696;52.134;5.500;2022-07-12T16:06:00;1.88;;;1.77;;
71042;SDS011;58696;52.134;5.500;2022-07-12T16:08:30;4.13;;;2.10;;